sensor_id;sensor_type;location;lat;lon;timestamp;temperature;humidity
9083;DHT22;4577;48.704;9.000;2024-02-26T00:01:27;8.10;61.20
9083;DHT22;4577;48.704;9.000;2024-02-26T00:03:53;8.10;61.20
9083;DHT22;4577;48.704;9.000;2024-02-26T00:06:20;8.00;62.90
9083;DHT22;4577;48.704;9.000;2024-02-26T00:13:38;8.10;62.30
9083;DHT22;4577;48.704;9.000;2024-02-26T00:16:04;8.20;62.40
9083;DHT22;4577;48.704;9.000;2024-02-26T00:18:31;7.90;62.60
9083;DHT22;4577;48.704;9.000;2024-02-26T00:20:57;7.90;66.30
9083;DHT22;4577;48.704;9.000;2024-02-26T00:23:23;8.20;63.50
9083;DHT22;4577;48.704;9.000;2024-02-26T00:28:15;8.20;65.80
9083;DHT22;4577;48.704;9.000;2024-02-26T00:30:41;8.20;63.30
9083;DHT22;4577;48.704;9.000;2024-02-26T00:33:06;8.20;63.30
9083;DHT22;4577;48.704;9.000;2024-02-26T00:35:32;7.80;62.90
9083;DHT22;4577;48.704;9.000;2024-02-26T00:37:57;8.20;66.00
9083;DHT22;4577;48.704;9.000;2024-02-26T00:40:24;8.20;66.80
9083;DHT22;4577;48.704;9.000;2024-02-26T00:42:49;7.90;63.50
9083;DHT22;4577;48.704;9.000;2024-02-26T00:50:10;8.10;67.40
9083;DHT22;4577;48.704;9.000;2024-02-26T00:52:35;7.70;64.90
9083;DHT22;4577;48.704;9.000;2024-02-26T00:55:02;7.80;63.60
9083;DHT22;4577;48.704;9.000;2024-02-26T00:57:28;7.60;67.30
9083;DHT22;4577;48.704;9.000;2024-02-26T00:59:54;8.50;69.10
9083;DHT22;4577;48.704;9.000;2024-02-26T01:02:22;7.90;67.20
9083;DHT22;4577;48.704;9.000;2024-02-26T01:04:47;7.70;64.70
9083;DHT22;4577;48.704;9.000;2024-02-26T01:14:31;7.70;66.70
9083;DHT22;4577;48.704;9.000;2024-02-26T01:19:23;8.10;69.80
9083;DHT22;4577;48.704;9.000;2024-02-26T01:21:49;7.90;66.80
9083;DHT22;4577;48.704;9.000;2024-02-26T01:26:41;8.10;65.10
9083;DHT22;4577;48.704;9.000;2024-02-26T01:29:06;8.20;63.40
9083;DHT22;4577;48.704;9.000;2024-02-26T01:31:32;8.20;60.30
9083;DHT22;4577;48.704;9.000;2024-02-26T01:36:24;8.00;59.20
9083;DHT22;4577;48.704;9.000;2024-02-26T01:38:50;7.90;63.50
9083;DHT22;4577;48.704;9.000;2024-02-26T01:43:42;7.80;64.00
9083;DHT22;4577;48.704;9.000;2024-02-26T01:46:14;8.10;60.70
9083;DHT22;4577;48.704;9.000;2024-02-26T01:48:44;8.10;60.00
9083;DHT22;4577;48.704;9.000;2024-02-26T01:51:12;8.10;59.20
9083;DHT22;4577;48.704;9.000;2024-02-26T01:53:40;8.00;58.90
9083;DHT22;4577;48.704;9.000;2024-02-26T01:58:33;8.10;59.10
9083;DHT22;4577;48.704;9.000;2024-02-26T02:01:00;8.30;62.80
9083;DHT22;4577;48.704;9.000;2024-02-26T02:03:26;8.10;60.10
9083;DHT22;4577;48.704;9.000;2024-02-26T02:10:45;8.00;60.60
9083;DHT22;4577;48.704;9.000;2024-02-26T02:13:13;8.00;62.60
9083;DHT22;4577;48.704;9.000;2024-02-26T02:15:39;8.10;67.30
9083;DHT22;4577;48.704;9.000;2024-02-26T02:18:05;8.00;68.30
9083;DHT22;4577;48.704;9.000;2024-02-26T02:20:32;8.10;68.20
9083;DHT22;4577;48.704;9.000;2024-02-26T02:25:27;7.90;66.50
9083;DHT22;4577;48.704;9.000;2024-02-26T02:27:54;7.70;65.10
9083;DHT22;4577;48.704;9.000;2024-02-26T02:30:22;8.50;65.00
9083;DHT22;4577;48.704;9.000;2024-02-26T02:32:49;8.80;65.10
9083;DHT22;4577;48.704;9.000;2024-02-26T02:37:41;8.90;65.60
9083;DHT22;4577;48.704;9.000;2024-02-26T02:40:07;8.80;64.30
9083;DHT22;4577;48.704;9.000;2024-02-26T02:42:33;8.80;63.90
9083;DHT22;4577;48.704;9.000;2024-02-26T02:49:52;8.60;66.60
9083;DHT22;4577;48.704;9.000;2024-02-26T02:52:17;8.70;63.80
9083;DHT22;4577;48.704;9.000;2024-02-26T02:54:43;8.80;67.60
9083;DHT22;4577;48.704;9.000;2024-02-26T02:59:36;8.70;65.00
9083;DHT22;4577;48.704;9.000;2024-02-26T03:04:28;8.70;66.20
9083;DHT22;4577;48.704;9.000;2024-02-26T03:06:55;9.40;66.40
9083;DHT22;4577;48.704;9.000;2024-02-26T03:09:20;8.50;67.70
9083;DHT22;4577;48.704;9.000;2024-02-26T03:16:38;8.60;65.80
9083;DHT22;4577;48.704;9.000;2024-02-26T03:19:04;8.40;69.30
9083;DHT22;4577;48.704;9.000;2024-02-26T03:21:29;8.90;66.60
9083;DHT22;4577;48.704;9.000;2024-02-26T03:23:55;8.60;66.80
9083;DHT22;4577;48.704;9.000;2024-02-26T03:26:21;8.50;66.10
9083;DHT22;4577;48.704;9.000;2024-02-26T03:31:13;8.70;68.20
9083;DHT22;4577;48.704;9.000;2024-02-26T03:33:39;8.70;65.50
9083;DHT22;4577;48.704;9.000;2024-02-26T03:36:05;8.60;70.40
9083;DHT22;4577;48.704;9.000;2024-02-26T03:38:31;8.30;66.40
9083;DHT22;4577;48.704;9.000;2024-02-26T03:40:56;8.60;68.60
9083;DHT22;4577;48.704;9.000;2024-02-26T03:43:22;9.00;69.30
9083;DHT22;4577;48.704;9.000;2024-02-26T03:45:48;8.60;72.10
9083;DHT22;4577;48.704;9.000;2024-02-26T03:48:13;8.50;70.90
9083;DHT22;4577;48.704;9.000;2024-02-26T03:50:39;8.30;73.40
9083;DHT22;4577;48.704;9.000;2024-02-26T04:00:23;9.20;72.90
9083;DHT22;4577;48.704;9.000;2024-02-26T04:05:15;8.30;69.50
9083;DHT22;4577;48.704;9.000;2024-02-26T04:10:11;8.60;70.00
9083;DHT22;4577;48.704;9.000;2024-02-26T04:12:40;8.50;69.40
9083;DHT22;4577;48.704;9.000;2024-02-26T04:15:08;8.40;71.00
9083;DHT22;4577;48.704;9.000;2024-02-26T04:17:34;8.70;69.90
9083;DHT22;4577;48.704;9.000;2024-02-26T04:19:59;8.40;72.60
9083;DHT22;4577;48.704;9.000;2024-02-26T04:22:25;8.60;75.00
9083;DHT22;4577;48.704;9.000;2024-02-26T04:24:51;8.40;70.60
9083;DHT22;4577;48.704;9.000;2024-02-26T04:27:16;8.60;73.40
9083;DHT22;4577;48.704;9.000;2024-02-26T04:29:42;8.30;71.90
9083;DHT22;4577;48.704;9.000;2024-02-26T04:32:08;8.10;74.50
9083;DHT22;4577;48.704;9.000;2024-02-26T04:39:25;8.30;76.90
9083;DHT22;4577;48.704;9.000;2024-02-26T04:44:17;8.40;76.20
9083;DHT22;4577;48.704;9.000;2024-02-26T04:49:09;8.40;74.00
9083;DHT22;4577;48.704;9.000;2024-02-26T04:51:35;8.50;70.90
9083;DHT22;4577;48.704;9.000;2024-02-26T04:58:52;8.60;73.20
9083;DHT22;4577;48.704;9.000;2024-02-26T05:01:18;8.70;70.60
9083;DHT22;4577;48.704;9.000;2024-02-26T05:03:44;8.40;73.20
9083;DHT22;4577;48.704;9.000;2024-02-26T05:06:10;8.50;70.20
9083;DHT22;4577;48.704;9.000;2024-02-26T05:11:03;8.50;69.90
9083;DHT22;4577;48.704;9.000;2024-02-26T05:13:29;8.50;70.40
9083;DHT22;4577;48.704;9.000;2024-02-26T05:15:55;8.10;73.20
9083;DHT22;4577;48.704;9.000;2024-02-26T05:18:22;8.50;74.70
9083;DHT22;4577;48.704;9.000;2024-02-26T05:23:13;8.40;75.30
9083;DHT22;4577;48.704;9.000;2024-02-26T05:28:06;8.30;76.50
9083;DHT22;4577;48.704;9.000;2024-02-26T05:30:32;8.40;74.30
9083;DHT22;4577;48.704;9.000;2024-02-26T05:35:25;8.10;74.90
9083;DHT22;4577;48.704;9.000;2024-02-26T05:37:51;8.00;72.60
9083;DHT22;4577;48.704;9.000;2024-02-26T05:40:17;8.10;72.10
9083;DHT22;4577;48.704;9.000;2024-02-26T05:45:11;8.10;74.40
9083;DHT22;4577;48.704;9.000;2024-02-26T05:50:09;8.20;73.10
9083;DHT22;4577;48.704;9.000;2024-02-26T05:52:39;8.00;76.60
9083;DHT22;4577;48.704;9.000;2024-02-26T05:55:05;8.20;76.20
9083;DHT22;4577;48.704;9.000;2024-02-26T05:57:32;8.30;79.20
9083;DHT22;4577;48.704;9.000;2024-02-26T05:59:58;8.30;79.50
9083;DHT22;4577;48.704;9.000;2024-02-26T06:12:13;8.00;76.70
9083;DHT22;4577;48.704;9.000;2024-02-26T06:17:05;8.10;78.60
9083;DHT22;4577;48.704;9.000;2024-02-26T06:19:32;7.80;81.10
9083;DHT22;4577;48.704;9.000;2024-02-26T06:29:16;7.90;78.60
9083;DHT22;4577;48.704;9.000;2024-02-26T06:31:42;8.10;78.60
9083;DHT22;4577;48.704;9.000;2024-02-26T06:34:08;8.60;83.00
9083;DHT22;4577;48.704;9.000;2024-02-26T06:46:21;7.90;82.30
9083;DHT22;4577;48.704;9.000;2024-02-26T06:48:48;7.80;78.90
9083;DHT22;4577;48.704;9.000;2024-02-26T06:51:13;8.80;84.60
9083;DHT22;4577;48.704;9.000;2024-02-26T07:03:24;8.30;81.70
9083;DHT22;4577;48.704;9.000;2024-02-26T07:05:51;7.60;81.10
9083;DHT22;4577;48.704;9.000;2024-02-26T07:08:17;8.20;85.20
9083;DHT22;4577;48.704;9.000;2024-02-26T07:10:43;7.80;85.10
9083;DHT22;4577;48.704;9.000;2024-02-26T07:13:09;8.10;81.50
9083;DHT22;4577;48.704;9.000;2024-02-26T07:15:34;8.40;83.90
9083;DHT22;4577;48.704;9.000;2024-02-26T07:18:00;8.20;86.10
9083;DHT22;4577;48.704;9.000;2024-02-26T07:20:29;8.10;83.20
9083;DHT22;4577;48.704;9.000;2024-02-26T07:22:56;8.00;82.30
9083;DHT22;4577;48.704;9.000;2024-02-26T07:30:15;7.60;84.10
9083;DHT22;4577;48.704;9.000;2024-02-26T07:32:42;8.60;88.40
9083;DHT22;4577;48.704;9.000;2024-02-26T07:35:08;7.80;86.90
9083;DHT22;4577;48.704;9.000;2024-02-26T07:40:00;8.50;86.20
9083;DHT22;4577;48.704;9.000;2024-02-26T07:42:26;9.00;86.30
9083;DHT22;4577;48.704;9.000;2024-02-26T07:44:52;8.50;85.40
9083;DHT22;4577;48.704;9.000;2024-02-26T07:47:21;8.50;89.40
9083;DHT22;4577;48.704;9.000;2024-02-26T07:49:47;8.50;85.10
9083;DHT22;4577;48.704;9.000;2024-02-26T07:59:32;8.40;90.20
9083;DHT22;4577;48.704;9.000;2024-02-26T08:01:57;8.60;90.30
9083;DHT22;4577;48.704;9.000;2024-02-26T08:04:23;8.40;90.30
9083;DHT22;4577;48.704;9.000;2024-02-26T08:06:49;8.50;88.70
9083;DHT22;4577;48.704;9.000;2024-02-26T08:11:40;8.40;87.70
9083;DHT22;4577;48.704;9.000;2024-02-26T08:16:32;8.70;85.90
9083;DHT22;4577;48.704;9.000;2024-02-26T08:18:57;8.60;89.40
9083;DHT22;4577;48.704;9.000;2024-02-26T08:21:23;8.90;88.60
9083;DHT22;4577;48.704;9.000;2024-02-26T08:26:15;8.70;87.30
9083;DHT22;4577;48.704;9.000;2024-02-26T08:28:41;8.70;88.10
9083;DHT22;4577;48.704;9.000;2024-02-26T08:31:07;8.50;89.00
9083;DHT22;4577;48.704;9.000;2024-02-26T08:36:06;8.80;84.30
9083;DHT22;4577;48.704;9.000;2024-02-26T08:38:50;8.90;85.20
9083;DHT22;4577;48.704;9.000;2024-02-26T08:41:16;8.90;85.00
9083;DHT22;4577;48.704;9.000;2024-02-26T08:43:41;8.90;85.40
9083;DHT22;4577;48.704;9.000;2024-02-26T08:46:10;8.80;89.20
9083;DHT22;4577;48.704;9.000;2024-02-26T08:48:38;8.90;87.00
9083;DHT22;4577;48.704;9.000;2024-02-26T08:51:06;8.80;86.00
9083;DHT22;4577;48.704;9.000;2024-02-26T08:53:32;9.00;89.80
9083;DHT22;4577;48.704;9.000;2024-02-26T08:55:58;8.80;85.70
9083;DHT22;4577;48.704;9.000;2024-02-26T08:58:23;8.70;85.60
9083;DHT22;4577;48.704;9.000;2024-02-26T09:00:49;9.00;88.10
9083;DHT22;4577;48.704;9.000;2024-02-26T09:03:15;8.90;88.20
9083;DHT22;4577;48.704;9.000;2024-02-26T09:05:40;8.80;85.10
9083;DHT22;4577;48.704;9.000;2024-02-26T09:08:06;8.80;88.20
9083;DHT22;4577;48.704;9.000;2024-02-26T09:10:32;9.00;86.40
9083;DHT22;4577;48.704;9.000;2024-02-26T09:12:58;8.80;86.80
9083;DHT22;4577;48.704;9.000;2024-02-26T09:15:24;9.10;86.00
9083;DHT22;4577;48.704;9.000;2024-02-26T09:17:49;8.90;82.20
9083;DHT22;4577;48.704;9.000;2024-02-26T09:20:16;8.90;85.60
9083;DHT22;4577;48.704;9.000;2024-02-26T09:22:46;9.00;81.40
9083;DHT22;4577;48.704;9.000;2024-02-26T09:25:12;9.00;79.90
9083;DHT22;4577;48.704;9.000;2024-02-26T09:27:37;9.10;79.60
9083;DHT22;4577;48.704;9.000;2024-02-26T09:30:03;9.90;84.40
9083;DHT22;4577;48.704;9.000;2024-02-26T09:32:29;9.30;80.50
9083;DHT22;4577;48.704;9.000;2024-02-26T09:34:55;9.40;81.90
9083;DHT22;4577;48.704;9.000;2024-02-26T09:37:21;9.50;80.80
9083;DHT22;4577;48.704;9.000;2024-02-26T09:39:47;9.40;81.20
9083;DHT22;4577;48.704;9.000;2024-02-26T09:42:13;9.50;85.50
9083;DHT22;4577;48.704;9.000;2024-02-26T09:44:40;9.60;81.20
9083;DHT22;4577;48.704;9.000;2024-02-26T09:47:10;9.60;80.20
9083;DHT22;4577;48.704;9.000;2024-02-26T09:49:36;9.90;84.80
9083;DHT22;4577;48.704;9.000;2024-02-26T09:52:04;9.80;80.40
9083;DHT22;4577;48.704;9.000;2024-02-26T09:54:31;9.70;84.50
9083;DHT22;4577;48.704;9.000;2024-02-26T09:57:02;10.10;80.40
9083;DHT22;4577;48.704;9.000;2024-02-26T09:59:29;10.10;78.50
9083;DHT22;4577;48.704;9.000;2024-02-26T10:01:59;10.20;78.30
9083;DHT22;4577;48.704;9.000;2024-02-26T10:04:26;10.30;81.90
9083;DHT22;4577;48.704;9.000;2024-02-26T10:06:52;10.30;78.30
9083;DHT22;4577;48.704;9.000;2024-02-26T10:09:18;10.40;77.80
9083;DHT22;4577;48.704;9.000;2024-02-26T10:11:45;10.50;77.80
9083;DHT22;4577;48.704;9.000;2024-02-26T10:14:12;10.60;76.10
9083;DHT22;4577;48.704;9.000;2024-02-26T10:16:38;10.50;76.40
9083;DHT22;4577;48.704;9.000;2024-02-26T10:19:04;10.50;75.40
9083;DHT22;4577;48.704;9.000;2024-02-26T10:21:29;10.50;76.50
9083;DHT22;4577;48.704;9.000;2024-02-26T10:23:55;10.60;76.70
9083;DHT22;4577;48.704;9.000;2024-02-26T10:26:21;10.60;75.00
9083;DHT22;4577;48.704;9.000;2024-02-26T10:28:47;10.60;74.60
9083;DHT22;4577;48.704;9.000;2024-02-26T10:31:14;10.80;81.00
9083;DHT22;4577;48.704;9.000;2024-02-26T10:33:41;10.90;77.40
9083;DHT22;4577;48.704;9.000;2024-02-26T10:36:08;11.00;77.40
9083;DHT22;4577;48.704;9.000;2024-02-26T10:38:37;11.20;76.70
9083;DHT22;4577;48.704;9.000;2024-02-26T10:41:04;11.40;77.00
9083;DHT22;4577;48.704;9.000;2024-02-26T10:43:30;11.60;77.00
9083;DHT22;4577;48.704;9.000;2024-02-26T10:45:56;11.60;75.40
9083;DHT22;4577;48.704;9.000;2024-02-26T10:48:22;11.70;73.40
9083;DHT22;4577;48.704;9.000;2024-02-26T10:50:48;11.70;73.20
9083;DHT22;4577;48.704;9.000;2024-02-26T10:53:20;11.80;73.20
9083;DHT22;4577;48.704;9.000;2024-02-26T10:55:54;11.80;71.20
9083;DHT22;4577;48.704;9.000;2024-02-26T10:58:22;11.80;69.30
9083;DHT22;4577;48.704;9.000;2024-02-26T11:00:50;11.80;69.00
9083;DHT22;4577;48.704;9.000;2024-02-26T11:03:16;11.90;69.70
9083;DHT22;4577;48.704;9.000;2024-02-26T11:05:44;12.00;67.60
9083;DHT22;4577;48.704;9.000;2024-02-26T11:08:11;11.90;66.20
9083;DHT22;4577;48.704;9.000;2024-02-26T11:10:37;11.80;63.90
9083;DHT22;4577;48.704;9.000;2024-02-26T11:13:05;11.80;63.90
9083;DHT22;4577;48.704;9.000;2024-02-26T11:15:32;11.80;66.60
9083;DHT22;4577;48.704;9.000;2024-02-26T11:17:59;12.00;66.40
9083;DHT22;4577;48.704;9.000;2024-02-26T11:20:28;12.00;66.80
9083;DHT22;4577;48.704;9.000;2024-02-26T11:22:55;12.00;65.80
9083;DHT22;4577;48.704;9.000;2024-02-26T11:25:21;11.90;65.60
9083;DHT22;4577;48.704;9.000;2024-02-26T11:27:51;11.90;66.50
9083;DHT22;4577;48.704;9.000;2024-02-26T11:30:18;11.90;65.90
9083;DHT22;4577;48.704;9.000;2024-02-26T11:32:45;11.90;66.80
9083;DHT22;4577;48.704;9.000;2024-02-26T11:35:15;11.90;64.80
9083;DHT22;4577;48.704;9.000;2024-02-26T11:37:52;12.00;64.80
9083;DHT22;4577;48.704;9.000;2024-02-26T11:40:18;12.00;65.80
9083;DHT22;4577;48.704;9.000;2024-02-26T11:42:44;12.10;64.80
9083;DHT22;4577;48.704;9.000;2024-02-26T11:48:20;12.30;63.40
9083;DHT22;4577;48.704;9.000;2024-02-26T11:50:53;12.20;64.10
9083;DHT22;4577;48.704;9.000;2024-02-26T11:53:26;12.20;62.40
9083;DHT22;4577;48.704;9.000;2024-02-26T11:58:42;12.10;61.50
9083;DHT22;4577;48.704;9.000;2024-02-26T12:04:07;12.00;61.50
9083;DHT22;4577;48.704;9.000;2024-02-26T12:07:05;12.00;61.50
9083;DHT22;4577;48.704;9.000;2024-02-26T12:11:56;12.00;61.60
9083;DHT22;4577;48.704;9.000;2024-02-26T12:14:25;11.40;64.00
9083;DHT22;4577;48.704;9.000;2024-02-26T12:16:52;11.90;62.00
9083;DHT22;4577;48.704;9.000;2024-02-26T12:19:18;12.00;61.10
9083;DHT22;4577;48.704;9.000;2024-02-26T12:21:44;11.90;61.20
9083;DHT22;4577;48.704;9.000;2024-02-26T12:24:11;11.90;60.90
9083;DHT22;4577;48.704;9.000;2024-02-26T12:26:38;11.90;61.30
9083;DHT22;4577;48.704;9.000;2024-02-26T12:29:04;12.00;62.20
9083;DHT22;4577;48.704;9.000;2024-02-26T12:31:31;12.30;65.10
9083;DHT22;4577;48.704;9.000;2024-02-26T12:33:58;12.10;62.10
9083;DHT22;4577;48.704;9.000;2024-02-26T12:36:23;12.10;60.80
9083;DHT22;4577;48.704;9.000;2024-02-26T12:38:52;12.20;63.30
9083;DHT22;4577;48.704;9.000;2024-02-26T12:41:18;12.30;60.90
9083;DHT22;4577;48.704;9.000;2024-02-26T12:43:44;12.30;60.90
9083;DHT22;4577;48.704;9.000;2024-02-26T12:46:11;12.30;61.60
9083;DHT22;4577;48.704;9.000;2024-02-26T12:48:38;12.40;61.70
9083;DHT22;4577;48.704;9.000;2024-02-26T12:51:05;12.50;62.00
9083;DHT22;4577;48.704;9.000;2024-02-26T12:53:31;12.40;60.50
9083;DHT22;4577;48.704;9.000;2024-02-26T12:55:57;12.30;59.80
9083;DHT22;4577;48.704;9.000;2024-02-26T12:58:23;12.30;60.20
9083;DHT22;4577;48.704;9.000;2024-02-26T13:00:54;12.40;61.60
9083;DHT22;4577;48.704;9.000;2024-02-26T13:03:21;12.50;62.20
9083;DHT22;4577;48.704;9.000;2024-02-26T13:05:48;12.70;62.30
9083;DHT22;4577;48.704;9.000;2024-02-26T13:08:20;12.70;61.30
9083;DHT22;4577;48.704;9.000;2024-02-26T13:10:47;12.90;65.50
9083;DHT22;4577;48.704;9.000;2024-02-26T13:13:16;13.00;65.20
9083;DHT22;4577;48.704;9.000;2024-02-26T13:15:44;12.90;61.80
9083;DHT22;4577;48.704;9.000;2024-02-26T13:18:16;12.80;60.70
9083;DHT22;4577;48.704;9.000;2024-02-26T13:20:41;12.80;62.40
9083;DHT22;4577;48.704;9.000;2024-02-26T13:23:11;13.20;64.70
9083;DHT22;4577;48.704;9.000;2024-02-26T13:25:37;12.90;61.60
9083;DHT22;4577;48.704;9.000;2024-02-26T13:28:16;12.90;61.40
9083;DHT22;4577;48.704;9.000;2024-02-26T13:30:53;13.00;62.20
9083;DHT22;4577;48.704;9.000;2024-02-26T13:33:22;13.10;65.10
9083;DHT22;4577;48.704;9.000;2024-02-26T13:35:48;12.80;64.10
9083;DHT22;4577;48.704;9.000;2024-02-26T13:38:14;13.10;61.20
9083;DHT22;4577;48.704;9.000;2024-02-26T13:40:40;12.60;63.60
9083;DHT22;4577;48.704;9.000;2024-02-26T13:43:05;13.00;61.10
9083;DHT22;4577;48.704;9.000;2024-02-26T13:45:34;13.10;61.70
9083;DHT22;4577;48.704;9.000;2024-02-26T13:48:04;13.00;60.70
9083;DHT22;4577;48.704;9.000;2024-02-26T13:50:30;12.70;61.90
9083;DHT22;4577;48.704;9.000;2024-02-26T13:52:56;13.00;63.30
9083;DHT22;4577;48.704;9.000;2024-02-26T13:55:25;13.00;60.40
9083;DHT22;4577;48.704;9.000;2024-02-26T13:57:56;13.10;61.20
9083;DHT22;4577;48.704;9.000;2024-02-26T14:00:22;13.00;63.20
9083;DHT22;4577;48.704;9.000;2024-02-26T14:02:48;13.30;64.20
9083;DHT22;4577;48.704;9.000;2024-02-26T14:05:14;13.40;61.80
9083;DHT22;4577;48.704;9.000;2024-02-26T14:07:41;13.50;61.00
9083;DHT22;4577;48.704;9.000;2024-02-26T14:10:09;13.50;59.70
9083;DHT22;4577;48.704;9.000;2024-02-26T14:12:37;13.60;60.70
9083;DHT22;4577;48.704;9.000;2024-02-26T14:15:03;13.60;59.90
9083;DHT22;4577;48.704;9.000;2024-02-26T14:17:30;13.60;59.50
9083;DHT22;4577;48.704;9.000;2024-02-26T14:19:56;13.60;60.30
9083;DHT22;4577;48.704;9.000;2024-02-26T14:22:22;13.70;61.60
9083;DHT22;4577;48.704;9.000;2024-02-26T14:24:48;13.50;58.40
9083;DHT22;4577;48.704;9.000;2024-02-26T14:27:13;13.30;60.00
9083;DHT22;4577;48.704;9.000;2024-02-26T14:29:45;13.60;60.10
9083;DHT22;4577;48.704;9.000;2024-02-26T14:32:13;13.60;58.40
9083;DHT22;4577;48.704;9.000;2024-02-26T14:37:04;13.80;60.70
9083;DHT22;4577;48.704;9.000;2024-02-26T14:39:32;13.60;59.20
9083;DHT22;4577;48.704;9.000;2024-02-26T14:41:58;13.50;60.20
9083;DHT22;4577;48.704;9.000;2024-02-26T14:44:24;13.70;58.20
9083;DHT22;4577;48.704;9.000;2024-02-26T14:46:50;13.50;61.00
9083;DHT22;4577;48.704;9.000;2024-02-26T14:49:16;13.60;61.40
9083;DHT22;4577;48.704;9.000;2024-02-26T14:51:43;13.60;59.50
9083;DHT22;4577;48.704;9.000;2024-02-26T14:54:13;13.30;61.30
9083;DHT22;4577;48.704;9.000;2024-02-26T14:56:39;13.40;59.30
9083;DHT22;4577;48.704;9.000;2024-02-26T14:59:06;13.50;59.40
9083;DHT22;4577;48.704;9.000;2024-02-26T15:01:34;13.30;59.90
9083;DHT22;4577;48.704;9.000;2024-02-26T15:04:00;13.40;60.70
9083;DHT22;4577;48.704;9.000;2024-02-26T15:06:26;13.20;61.50
9083;DHT22;4577;48.704;9.000;2024-02-26T15:08:52;13.30;59.70
9083;DHT22;4577;48.704;9.000;2024-02-26T15:11:17;13.20;61.60
9083;DHT22;4577;48.704;9.000;2024-02-26T15:13:43;13.20;61.90
9083;DHT22;4577;48.704;9.000;2024-02-26T15:16:09;13.10;61.20
9083;DHT22;4577;48.704;9.000;2024-02-26T15:18:42;13.20;59.70
9083;DHT22;4577;48.704;9.000;2024-02-26T15:23:33;13.20;59.70
9083;DHT22;4577;48.704;9.000;2024-02-26T15:26:00;13.00;61.00
9083;DHT22;4577;48.704;9.000;2024-02-26T15:28:28;13.20;63.20
9083;DHT22;4577;48.704;9.000;2024-02-26T15:30:54;13.10;61.60
9083;DHT22;4577;48.704;9.000;2024-02-26T15:33:19;13.20;59.90
9083;DHT22;4577;48.704;9.000;2024-02-26T15:35:45;13.20;59.60
9083;DHT22;4577;48.704;9.000;2024-02-26T15:38:11;13.10;60.80
9083;DHT22;4577;48.704;9.000;2024-02-26T15:40:38;13.20;61.20
9083;DHT22;4577;48.704;9.000;2024-02-26T15:43:03;13.20;59.40
9083;DHT22;4577;48.704;9.000;2024-02-26T15:45:29;13.20;58.90
9083;DHT22;4577;48.704;9.000;2024-02-26T15:47:59;13.10;59.30
9083;DHT22;4577;48.704;9.000;2024-02-26T15:50:25;13.10;62.30
9083;DHT22;4577;48.704;9.000;2024-02-26T15:52:51;12.90;62.60
9083;DHT22;4577;48.704;9.000;2024-02-26T15:55:17;12.90;60.90
9083;DHT22;4577;48.704;9.000;2024-02-26T15:57:43;12.70;61.90
9083;DHT22;4577;48.704;9.000;2024-02-26T16:00:09;12.90;61.40
9083;DHT22;4577;48.704;9.000;2024-02-26T16:02:39;12.70;60.90
9083;DHT22;4577;48.704;9.000;2024-02-26T16:05:06;12.60;64.00
9083;DHT22;4577;48.704;9.000;2024-02-26T16:07:41;12.50;64.00
9083;DHT22;4577;48.704;9.000;2024-02-26T16:10:07;12.90;64.50
9083;DHT22;4577;48.704;9.000;2024-02-26T16:12:41;12.70;62.10
9083;DHT22;4577;48.704;9.000;2024-02-26T16:15:08;12.50;61.80
9083;DHT22;4577;48.704;9.000;2024-02-26T16:17:42;12.70;62.50
9083;DHT22;4577;48.704;9.000;2024-02-26T16:20:19;12.40;61.80
9083;DHT22;4577;48.704;9.000;2024-02-26T16:22:46;12.70;63.40
9083;DHT22;4577;48.704;9.000;2024-02-26T16:25:11;12.60;61.40
9083;DHT22;4577;48.704;9.000;2024-02-26T16:27:38;12.70;60.90
9083;DHT22;4577;48.704;9.000;2024-02-26T16:30:04;12.50;63.00
9083;DHT22;4577;48.704;9.000;2024-02-26T16:32:31;12.60;60.50
9083;DHT22;4577;48.704;9.000;2024-02-26T16:34:59;12.40;59.80
9083;DHT22;4577;48.704;9.000;2024-02-26T16:37:25;12.40;62.10
9083;DHT22;4577;48.704;9.000;2024-02-26T16:39:51;12.30;59.60
9083;DHT22;4577;48.704;9.000;2024-02-26T16:42:16;12.30;60.00
9083;DHT22;4577;48.704;9.000;2024-02-26T16:44:44;12.30;61.10
9083;DHT22;4577;48.704;9.000;2024-02-26T16:47:09;12.00;62.60
9083;DHT22;4577;48.704;9.000;2024-02-26T16:52:01;12.50;61.40
9083;DHT22;4577;48.704;9.000;2024-02-26T16:54:28;12.20;63.10
9083;DHT22;4577;48.704;9.000;2024-02-26T16:56:54;12.10;59.90
9083;DHT22;4577;48.704;9.000;2024-02-26T16:59:23;11.70;59.90
9083;DHT22;4577;48.704;9.000;2024-02-26T17:01:53;12.10;60.70
9083;DHT22;4577;48.704;9.000;2024-02-26T17:04:19;12.10;62.30
9083;DHT22;4577;48.704;9.000;2024-02-26T17:06:45;12.00;61.70
9083;DHT22;4577;48.704;9.000;2024-02-26T17:09:10;12.10;64.60
9083;DHT22;4577;48.704;9.000;2024-02-26T17:11:37;12.00;64.40
9083;DHT22;4577;48.704;9.000;2024-02-26T17:14:04;12.10;62.10
9083;DHT22;4577;48.704;9.000;2024-02-26T17:16:30;12.10;62.10
9083;DHT22;4577;48.704;9.000;2024-02-26T17:18:56;12.10;62.40
9083;DHT22;4577;48.704;9.000;2024-02-26T17:21:25;12.10;65.20
9083;DHT22;4577;48.704;9.000;2024-02-26T17:23:51;12.10;63.20
9083;DHT22;4577;48.704;9.000;2024-02-26T17:26:22;11.90;65.70
9083;DHT22;4577;48.704;9.000;2024-02-26T17:28:47;12.10;66.70
9083;DHT22;4577;48.704;9.000;2024-02-26T17:31:14;12.10;66.90
9083;DHT22;4577;48.704;9.000;2024-02-26T17:36:06;12.00;67.20
9083;DHT22;4577;48.704;9.000;2024-02-26T17:41:00;11.70;67.70
9083;DHT22;4577;48.704;9.000;2024-02-26T17:43:26;12.30;67.90
9083;DHT22;4577;48.704;9.000;2024-02-26T17:45:52;11.90;68.30
9083;DHT22;4577;48.704;9.000;2024-02-26T17:48:18;12.00;65.20
9083;DHT22;4577;48.704;9.000;2024-02-26T17:50:43;11.80;65.30
9083;DHT22;4577;48.704;9.000;2024-02-26T17:53:09;12.50;66.70
9083;DHT22;4577;48.704;9.000;2024-02-26T17:55:39;11.90;65.50
9083;DHT22;4577;48.704;9.000;2024-02-26T17:58:05;11.80;65.90
9083;DHT22;4577;48.704;9.000;2024-02-26T18:00:31;11.50;68.30
9083;DHT22;4577;48.704;9.000;2024-02-26T18:02:58;11.80;66.00
9083;DHT22;4577;48.704;9.000;2024-02-26T18:05:25;11.80;66.10
9083;DHT22;4577;48.704;9.000;2024-02-26T18:07:51;11.80;68.80
9083;DHT22;4577;48.704;9.000;2024-02-26T18:10:17;11.60;68.60
9083;DHT22;4577;48.704;9.000;2024-02-26T18:12:44;11.70;67.80
9083;DHT22;4577;48.704;9.000;2024-02-26T18:15:10;11.80;65.30
9083;DHT22;4577;48.704;9.000;2024-02-26T18:17:37;11.90;64.20
9083;DHT22;4577;48.704;9.000;2024-02-26T18:20:06;11.80;66.40
9083;DHT22;4577;48.704;9.000;2024-02-26T18:22:34;11.80;64.40
9083;DHT22;4577;48.704;9.000;2024-02-26T18:25:00;11.80;64.20
9083;DHT22;4577;48.704;9.000;2024-02-26T18:27:26;12.20;66.00
9083;DHT22;4577;48.704;9.000;2024-02-26T18:29:52;11.70;63.90
9083;DHT22;4577;48.704;9.000;2024-02-26T18:32:18;11.80;65.40
9083;DHT22;4577;48.704;9.000;2024-02-26T18:34:44;11.70;62.80
9083;DHT22;4577;48.704;9.000;2024-02-26T18:39:36;11.50;61.90
9083;DHT22;4577;48.704;9.000;2024-02-26T18:42:02;11.60;62.40
9083;DHT22;4577;48.704;9.000;2024-02-26T18:44:31;11.60;65.10
9083;DHT22;4577;48.704;9.000;2024-02-26T18:46:56;11.60;62.60
9083;DHT22;4577;48.704;9.000;2024-02-26T18:49:22;11.40;63.80
9083;DHT22;4577;48.704;9.000;2024-02-26T18:51:48;11.50;62.20
9083;DHT22;4577;48.704;9.000;2024-02-26T18:54:14;11.10;62.70
9083;DHT22;4577;48.704;9.000;2024-02-26T18:59:06;11.70;64.00
9083;DHT22;4577;48.704;9.000;2024-02-26T19:01:40;11.20;63.50
9083;DHT22;4577;48.704;9.000;2024-02-26T19:04:06;11.40;63.40
9083;DHT22;4577;48.704;9.000;2024-02-26T19:06:32;11.30;60.00
9083;DHT22;4577;48.704;9.000;2024-02-26T19:13:55;11.20;61.10
9083;DHT22;4577;48.704;9.000;2024-02-26T19:16:23;10.80;60.00
9083;DHT22;4577;48.704;9.000;2024-02-26T19:18:48;11.10;59.90
9083;DHT22;4577;48.704;9.000;2024-02-26T19:21:14;11.20;60.40
9083;DHT22;4577;48.704;9.000;2024-02-26T19:23:40;11.40;64.00